Time;durP1;ratioP1;P1;durP2;ratioP2;P2;SDS_P1;SDS_P2;PMS_P1;PMS_P2;Temp;Humidity;BMP_temperature;BMP_pressure;BME280_temperature;BME280_humidity;BME280_pressure;Samples;Min_cycle;Max_cycle;Signal;HPM_P1;HPM_P2
2023/02/16 00:01:24;;;;;;;29.70;19.80;;;;;;;4.80;84.21;101597.28;5024747;28;20081;-60
2023/02/16 00:03:53;;;;;;;31.13;19.67;;;;;;;4.71;85.38;101587.03;5022528;28;20137;-60
2023/02/16 00:06:21;;;;;;;25.17;17.98;;;;;;;4.73;85.51;101582.66;5024548;28;20064;-62
2023/02/16 00:08:51;;;;;;;26.92;18.73;;;;;;;4.77;85.05;101590.41;5020103;28;20049;-61
2023/02/16 00:14:22;;;;;;;28.80;19.25;;;;;;;4.74;84.70;101595.69;5024004;28;20056;-61
2023/02/16 00:16:49;;;;;;;32.90;19.35;;;;;;;4.72;85.20;101591.38;4985082;28;1210525;-60
2023/02/16 00:19:23;;;;;;;28.83;18.88;;;;;;;4.71;84.85;101600.94;5022554;28;20057;-61
2023/02/16 00:21:53;;;;;;;30.52;18.33;;;;;;;4.65;85.64;101600.22;5027916;28;20050;-62
2023/02/16 00:24:21;;;;;;;28.25;19.40;;;;;;;4.63;85.12;101599.38;5021871;28;20144;-59
2023/02/16 00:26:49;;;;;;;29.33;20.52;;;;;;;4.56;85.82;101591.66;5021740;28;20081;-61
2023/02/16 00:29:26;;;;;;;29.67;20.10;;;;;;;4.54;86.34;101600.38;5021370;28;20053;-59
2023/02/16 00:31:54;;;;;;;25.67;17.83;;;;;;;4.47;86.30;101601.41;5046756;28;20069;-61
2023/02/16 00:34:29;;;;;;;30.35;19.77;;;;;;;4.46;86.75;101594.47;5029199;28;20331;-63
2023/02/16 00:36:58;;;;;;;31.10;20.20;;;;;;;4.42;86.37;101603.25;5029070;28;20045;-59
2023/02/16 00:39:25;;;;;;;29.08;19.20;;;;;;;4.45;86.85;101606.63;5025462;28;20076;-59
2023/02/16 00:41:58;;;;;;;29.27;20.48;;;;;;;4.44;86.95;101591.88;5030440;28;20049;-60
2023/02/16 00:44:31;;;;;;;27.02;18.15;;;;;;;4.42;87.30;101596.28;5030636;28;20091;-60
2023/02/16 00:47:18;;;;;;;24.52;17.33;;;;;;;4.47;86.72;101594.44;5023648;28;20054;-61
2023/02/16 00:49:47;;;;;;;25.05;17.65;;;;;;;4.49;86.71;101595.25;5029383;28;20052;-62
2023/02/16 00:52:17;;;;;;;29.90;19.55;;;;;;;4.41;86.88;101598.88;5028696;28;20107;-63
2023/02/16 00:54:44;;;;;;;25.92;16.73;;;;;;;4.38;87.29;101591.16;5016136;28;20148;-61
2023/02/16 00:57:15;;;;;;;25.50;16.88;;;;;;;4.38;86.62;101597.22;5027490;28;20469;-62
2023/02/16 00:59:42;;;;;;;25.98;18.25;;;;;;;4.38;87.16;101593.75;5028064;28;20936;-62
2023/02/16 01:02:10;;;;;;;24.50;16.83;;;;;;;4.37;86.67;101594.63;5025168;28;20137;-60
2023/02/16 01:04:37;;;;;;;29.08;17.95;;;;;;;4.36;86.37;101592.91;5025099;28;20136;-62
2023/02/16 01:12:51;;;;;;;;;;;;;;;4.23;86.64;101593.13;5029864;28;20077;-61
2023/02/16 01:15:21;;;;;;;25.58;16.30;;;;;;;4.23;86.49;101590.53;5029989;28;20397;-61
2023/02/16 01:17:48;;;;;;;28.02;17.60;;;;;;;4.18;87.07;101594.09;5025198;28;20132;-61
2023/02/16 01:20:18;;;;;;;25.48;17.58;;;;;;;4.11;87.38;101584.66;5030125;28;20080;-62
2023/02/16 01:22:45;;;;;;;24.92;17.60;;;;;;;4.14;87.30;101602.84;5020738;28;20049;-64
2023/02/16 01:25:13;;;;;;;25.73;17.05;;;;;;;4.13;87.26;101586.34;5024442;28;20136;-62
2023/02/16 01:27:41;;;;;;;25.80;17.33;;;;;;;4.15;87.01;101586.34;5029825;28;20251;-61
2023/02/16 01:30:16;;;;;;;27.55;18.73;;;;;;;4.11;86.87;101582.91;5033115;28;20132;-60
2023/02/16 01:32:50;;;;;;;26.38;16.90;;;;;;;4.11;87.15;101584.66;5029264;28;20445;-61
2023/02/16 01:35:22;;;;;;;24.10;17.02;;;;;;;4.00;87.00;101585.69;5043655;28;20045;-61
2023/02/16 01:37:49;;;;;;;26.15;17.08;;;;;;;3.95;87.01;101582.28;5035419;28;20529;-62
2023/02/16 01:40:21;;;;;;;24.35;16.48;;;;;;;3.95;87.21;101581.44;5027882;28;20042;-61
2023/02/16 01:42:51;;;;;;;27.88;17.95;;;;;;;3.95;86.99;101577.09;5025856;28;20091;-62
2023/02/16 01:45:32;;;;;;;22.77;16.60;;;;;;;3.98;87.88;101573.59;5014806;28;20133;-60
2023/02/16 01:48:05;;;;;;;25.75;17.27;;;;;;;4.03;87.51;101569.16;5028177;28;20144;-61
2023/02/16 01:50:41;;;;;;;22.73;16.00;;;;;;;4.00;87.23;101577.88;5028119;28;20137;-60
2023/02/16 01:53:11;;;;;;;;;;;;;;;3.94;87.04;101575.38;5028260;28;20528;-61
2023/02/16 01:55:42;;;;;;;23.67;16.95;;;;;;;3.78;87.81;101568.66;5025150;28;20008;-60
2023/02/16 01:58:28;;;;;;;26.17;18.40;;;;;;;3.61;89.52;101568.97;5027180;28;20051;-61
2023/02/16 02:00:55;;;;;;;30.35;19.83;;;;;;;3.50;91.10;101569.09;5024071;28;20144;-61
2023/02/16 02:06:27;;;;;;;26.23;19.02;;;;;;;3.51;91.20;101576.03;5026994;28;20609;-62
2023/02/16 02:09:12;;;;;;;26.38;19.30;;;;;;;3.47;91.73;101570.91;5024066;28;20068;-63
2023/02/16 02:11:45;;;;;;;27.25;18.23;;;;;;;3.58;90.75;101568.13;5030941;28;20132;-59
2023/02/16 02:14:26;;;;;;;27.33;18.80;;;;;;;3.64;90.80;101568.03;5027308;28;20485;-63
2023/02/16 02:16:59;;;;;;;29.52;19.63;;;;;;;3.62;90.30;101575.03;5023078;28;20064;-61
2023/02/16 02:19:26;;;;;;;29.00;19.50;;;;;;;3.52;90.88;101567.34;5025098;28;20140;-61
2023/02/16 02:25:47;;;;;;;26.38;18.85;;;;;;;3.47;91.06;101555.28;5026809;28;20095;-61
2023/02/16 02:28:30;;;;;;;28.65;18.23;;;;;;;3.44;91.14;101558.78;5021369;28;20581;-60
2023/02/16 02:31:01;;;;;;;25.00;17.60;;;;;;;3.50;91.45;101563.03;5035113;28;20054;-62
2023/02/16 02:33:48;;;;;;;26.80;18.08;;;;;;;3.49;91.02;101556.97;5022387;28;20049;-61
2023/02/16 02:36:39;;;;;;;24.75;16.70;;;;;;;3.40;90.99;101557.09;5024282;28;20383;-61
2023/02/16 02:39:40;;;;;;;26.63;18.33;;;;;;;3.44;90.73;101563.13;5023940;28;20069;-62
2023/02/16 02:42:42;;;;;;;28.33;18.15;;;;;;;3.45;91.01;101552.69;5025576;28;20536;-61
2023/02/16 02:45:17;;;;;;;27.60;17.23;;;;;;;3.41;90.76;101551.00;5024818;28;20128;-62
2023/02/16 02:47:46;;;;;;;24.52;17.85;;;;;;;3.45;90.64;101550.09;5014119;28;20512;-60
2023/02/16 02:51:27;;;;;;;23.02;16.52;;;;;;;3.38;90.40;101543.28;5025934;28;20432;-61
2023/02/16 02:53:32;;;;;;;25.17;16.65;;;;;;;3.41;90.89;101548.41;5026190;28;20340;-62
2023/02/16 03:01:36;;;;;;;24.75;17.00;;;;;;;3.48;89.28;101538.78;5028249;28;20132;-60
2023/02/16 03:04:05;;;;;;;24.35;16.10;;;;;;;3.50;89.21;101540.47;5022320;28;20051;-62
2023/02/16 03:06:45;;;;;;;23.02;16.67;;;;;;;3.47;89.16;101537.91;5025229;28;20128;-62
2023/02/16 03:09:14;;;;;;;22.65;16.35;;;;;;;3.44;89.70;101537.09;5027789;28;20041;-59
2023/02/16 03:14:40;;;;;;;23.50;16.15;;;;;;;3.45;89.97;101537.06;5023803;28;20436;-62
2023/02/16 03:31:16;;;;;;;20.45;16.05;;;;;;;3.39;90.18;101534.56;5022234;28;20068;-61
2023/02/16 03:33:44;;;;;;;22.40;16.73;;;;;;;3.38;90.02;101534.56;5017813;28;20050;-62
2023/02/16 03:36:12;;;;;;;25.60;16.48;;;;;;;3.35;89.96;101538.09;5016665;28;20137;-60
2023/02/16 03:38:39;;;;;;;31.10;16.20;;;;;;;3.25;90.65;101539.13;5037469;28;20081;-59
2023/02/16 03:41:06;;;;;;;21.75;15.90;;;;;;;3.18;90.37;101535.72;5026970;28;20739;-60
2023/02/16 03:43:34;;;;;;;24.40;16.40;;;;;;;3.19;90.19;101531.38;5026982;28;20637;-61
2023/02/16 03:46:01;;;;;;;24.17;17.23;;;;;;;3.14;90.59;101538.38;5022993;28;20115;-65
2023/02/16 03:48:28;;;;;;;23.15;15.57;;;;;;;3.19;90.91;101539.19;5024015;28;20072;-61
2023/02/16 03:50:55;;;;;;;21.83;15.93;;;;;;;3.19;91.21;101534.84;5023781;28;20474;-61
2023/02/16 03:53:22;;;;;;;24.75;16.13;;;;;;;3.21;90.98;101525.28;5027218;28;20038;-61
2023/02/16 03:55:50;;;;;;;19.85;15.50;;;;;;;3.23;91.17;101533.06;5023719;28;20458;-61
2023/02/16 03:58:19;;;;;;;21.58;14.75;;;;;;;3.23;90.81;101530.44;5021394;28;20050;-60
2023/02/16 04:00:47;;;;;;;24.88;15.32;;;;;;;3.16;91.02;101534.03;5023322;28;20057;-61
2023/02/16 04:03:15;;;;;;;25.23;15.93;;;;;;;3.05;91.58;101529.81;5025859;28;20053;-61
2023/02/16 04:05:43;;;;;;;25.02;15.85;;;;;;;2.96;92.02;101522.13;5021712;28;20069;-62
2023/02/16 04:08:10;;;;;;;21.27;14.70;;;;;;;2.96;92.39;101522.13;5024038;28;20148;-61
2023/02/16 04:10:38;;;;;;;22.65;15.90;;;;;;;2.99;91.74;101526.47;5026252;28;20144;-60
2023/02/16 04:13:05;;;;;;;23.95;16.48;;;;;;;2.93;92.25;101534.34;5022634;28;20514;-57
2023/02/16 04:15:33;;;;;;;20.27;14.68;;;;;;;2.95;92.04;101535.19;5020562;28;20046;-61
2023/02/16 04:18:00;;;;;;;20.23;14.55;;;;;;;2.96;92.33;101526.47;5021856;28;20152;-61
2023/02/16 04:20:30;;;;;;;19.45;14.15;;;;;;;2.98;91.90;101532.53;5018041;28;20487;-60
2023/02/16 04:22:57;;;;;;;23.75;16.60;;;;;;;2.91;92.68;101538.69;5024246;28;20137;-64
2023/02/16 04:25:25;;;;;;;27.25;15.82;;;;;;;2.74;93.10;101525.91;5024244;28;20084;-63
2023/02/16 04:27:52;;;;;;;20.40;15.23;;;;;;;2.67;93.12;101532.06;5024114;28;20157;-61
2023/02/16 04:30:28;;;;;;;22.35;15.20;;;;;;;2.70;93.38;101527.69;5026842;28;20447;-60
2023/02/16 04:32:55;;;;;;;;;;;;;;;2.73;93.59;101522.44;5025503;28;20089;-60
2023/02/16 04:35:22;;;;;;;23.35;16.38;;;;;;;2.56;94.79;101521.78;5025316;28;20388;-60
2023/02/16 04:37:50;;;;;;;22.67;16.88;;;;;;;2.54;94.39;101531.34;5025898;28;20060;-63
2023/02/16 04:40:17;;;;;;;21.65;15.52;;;;;;;2.49;94.56;101531.38;5023290;28;20105;-60
2023/02/16 04:42:45;;;;;;;24.20;16.15;;;;;;;2.53;94.76;101533.09;5021428;28;20124;-62
2023/02/16 04:45:12;;;;;;;25.92;16.63;;;;;;;2.49;94.22;101528.78;5021192;28;20045;-62
2023/02/16 04:47:40;;;;;;;18.70;14.45;;;;;;;2.42;94.84;101526.28;5021532;28;20124;-59
2023/02/16 04:50:08;;;;;;;18.25;13.77;;;;;;;2.46;94.68;101521.03;5025038;28;20059;-61
2023/02/16 04:52:35;;;;;;;21.65;15.82;;;;;;;2.46;94.97;101521.03;5026693;28;20137;-61
2023/02/16 04:55:04;;;;;;;22.90;16.00;;;;;;;2.41;94.91;101519.34;5022716;28;20048;-61
2023/02/16 04:57:31;;;;;;;22.92;16.13;;;;;;;2.42;94.64;101514.13;5026616;28;20189;-60
2023/02/16 04:59:59;;;;;;;19.58;13.70;;;;;;;2.43;94.50;101513.28;5020403;28;20132;-63
2023/02/16 05:02:26;;;;;;;23.00;15.60;;;;;;;2.46;94.14;101515.81;5019276;28;20076;-62
2023/02/16 05:04:53;;;;;;;21.88;16.25;;;;;;;2.35;94.33;101517.69;5014889;28;20502;-60
2023/02/16 05:07:20;;;;;;;23.67;17.52;;;;;;;2.30;94.45;101519.47;5020372;28;20061;-63
2023/02/16 05:09:47;;;;;;;20.95;15.23;;;;;;;2.25;94.95;101513.44;5018960;28;20054;-62
2023/02/16 05:15:00;;;;;;;20.75;15.32;;;;;;;2.33;94.10;101516.81;5024984;28;20186;-62
2023/02/16 05:17:28;;;;;;;24.20;15.85;;;;;;;2.39;93.74;101524.59;5023828;28;20137;-61
2023/02/16 05:19:58;;;;;;;25.27;15.43;;;;;;;2.40;94.02;101518.50;5026848;28;20054;-61
2023/02/16 05:22:27;;;;;;;19.10;14.48;;;;;;;2.33;93.95;101523.78;5024726;28;20132;-62
2023/02/16 05:24:54;;;;;;;21.08;15.07;;;;;;;2.22;94.32;101534.28;5025570;28;20128;-60
2023/02/16 05:27:24;;;;;;;23.10;15.93;;;;;;;2.13;94.71;101534.38;5022671;28;20092;-60
2023/02/16 05:29:51;;;;;;;22.17;15.73;;;;;;;2.09;94.90;101532.69;5023518;28;20068;-61
2023/02/16 05:32:19;;;;;;;21.80;15.05;;;;;;;2.13;94.73;101531.78;5013348;28;20128;-61
2023/02/16 05:34:46;;;;;;;23.83;15.40;;;;;;;2.17;94.64;101528.28;5024970;28;20435;-60
2023/02/16 05:37:15;;;;;;;25.48;17.38;;;;;;;2.23;94.41;101530.81;5026066;28;20053;-63
2023/02/16 05:39:43;;;;;;;22.60;15.85;;;;;;;2.19;94.39;101536.91;5023022;28;20488;-63
2023/02/16 05:42:10;;;;;;;21.98;14.88;;;;;;;2.08;95.28;101529.22;5020998;28;21466;-62
2023/02/16 05:44:37;;;;;;;20.50;14.93;;;;;;;2.16;94.60;101523.94;5025907;28;20061;-61
2023/02/16 05:47:04;;;;;;;23.77;15.27;;;;;;;2.22;94.15;101523.88;5025268;28;20139;-63
2023/02/16 05:49:31;;;;;;;22.17;15.35;;;;;;;2.27;94.38;101524.69;5022395;28;20080;-58
2023/02/16 05:51:59;;;;;;;23.75;16.02;;;;;;;2.32;93.96;101527.25;5027510;28;20049;-62
2023/02/16 05:54:26;;;;;;;21.50;15.90;;;;;;;2.20;93.82;101517.84;5022718;28;20104;-63
2023/02/16 05:56:54;;;;;;;21.98;15.68;;;;;;;2.19;94.02;101529.97;5019685;28;20063;-60
2023/02/16 05:59:21;;;;;;;26.90;16.35;;;;;;;2.20;93.99;101528.22;5025520;28;20125;-62
2023/02/16 06:01:49;;;;;;;25.02;16.80;;;;;;;2.17;93.82;101531.72;5022427;28;20092;-60
2023/02/16 06:04:19;;;;;;;24.10;16.05;;;;;;;2.15;93.73;101541.25;5024756;28;20435;-61
2023/02/16 06:06:47;;;;;;;25.25;17.58;;;;;;;2.02;94.41;101548.28;5025572;28;20072;-62
2023/02/16 06:09:14;;;;;;;22.40;14.90;;;;;;;2.03;94.25;101547.44;5023309;28;20081;-60
2023/02/16 06:11:42;;;;;;;26.38;17.38;;;;;;;2.01;93.96;101546.59;5014360;28;20085;-60
2023/02/16 06:14:15;;;;;;;28.00;17.55;;;;;;;1.98;94.69;101545.75;5015267;28;20076;-62
2023/02/16 06:16:44;;;;;;;25.80;17.92;;;;;;;1.91;94.74;101542.34;5012766;28;20413;-60
2023/02/16 06:19:12;;;;;;;26.67;17.05;;;;;;;1.87;94.99;101538.06;5028059;28;20282;-61
2023/02/16 06:21:39;;;;;;;22.20;16.13;;;;;;;1.89;94.76;101544.13;5024712;28;20124;-61
2023/02/16 06:24:08;;;;;;;22.98;15.85;;;;;;;1.92;94.64;101541.47;5025199;28;20060;-62
2023/02/16 06:26:36;;;;;;;23.00;16.05;;;;;;;1.97;94.28;101536.22;5027149;28;20136;-59
2023/02/16 06:29:03;;;;;;;24.10;16.42;;;;;;;1.95;94.40;101549.25;5029071;28;20061;-62
2023/02/16 06:31:31;;;;;;;28.77;17.75;;;;;;;1.90;93.97;101553.63;5025793;28;20754;-62
2023/02/16 06:34:03;;;;;;;25.65;15.95;;;;;;;1.90;94.36;101552.75;5008109;28;20063;-62
2023/02/16 06:36:30;;;;;;;21.73;15.57;;;;;;;1.92;93.92;101551.00;5020107;28;20304;-60
2023/02/16 06:38:57;;;;;;;29.63;17.60;;;;;;;1.97;93.90;101552.69;5025285;28;20041;-61
2023/02/16 06:41:30;;;;;;;25.33;15.88;;;;;;;2.03;93.45;101556.97;5026782;28;20620;-63
2023/02/16 06:43:59;;;;;;;21.83;15.70;;;;;;;2.03;93.70;101556.97;5022568;28;20045;-60
2023/02/16 06:46:27;;;;;;;21.85;15.82;;;;;;;2.05;93.44;101560.41;5013121;28;20690;-60
2023/02/16 06:48:54;;;;;;;25.90;16.40;;;;;;;2.10;93.30;101558.63;5020787;28;20100;-60
2023/02/16 06:51:22;;;;;;;28.25;17.15;;;;;;;2.07;93.45;101560.38;5021173;28;20045;-62
2023/02/16 06:53:49;;;;;;;24.75;17.42;;;;;;;1.98;93.67;101566.50;5022198;28;20132;-60
2023/02/16 06:56:16;;;;;;;23.13;16.90;;;;;;;1.93;94.17;101566.56;5026126;28;20129;-61
2023/02/16 06:58:43;;;;;;;24.38;17.02;;;;;;;1.94;93.63;101568.31;5018194;28;20092;-62
2023/02/16 07:01:11;;;;;;;28.40;17.40;;;;;;;1.94;94.27;101567.44;5023722;28;20091;-61
2023/02/16 07:03:38;;;;;;;29.75;17.75;;;;;;;1.91;94.32;101563.13;5029234;28;20124;-61
2023/02/16 07:06:06;;;;;;;29.92;18.13;;;;;;;2.00;93.83;101559.59;5025921;28;20125;-59
2023/02/16 07:08:33;;;;;;;24.23;16.85;;;;;;;2.07;93.50;101557.78;5026060;28;20065;-58
2023/02/16 07:11:02;;;;;;;27.13;18.15;;;;;;;2.13;93.14;101568.13;5026772;28;20140;-59
2023/02/16 07:13:29;;;;;;;24.33;15.80;;;;;;;2.20;93.12;101569.78;5031924;28;20041;-61
2023/02/16 07:15:56;;;;;;;26.75;17.55;;;;;;;2.19;93.52;101562.88;5023532;28;20496;-61
2023/02/16 07:18:24;;;;;;;29.92;17.60;;;;;;;2.22;93.08;101560.25;5025973;28;20506;-61
2023/02/16 07:20:51;;;;;;;24.83;17.33;;;;;;;2.28;92.93;101561.03;5023792;28;20050;-61
2023/02/16 07:23:18;;;;;;;27.10;17.00;;;;;;;2.35;92.49;101558.41;5024046;28;20152;-60
2023/02/16 07:25:46;;;;;;;28.35;17.92;;;;;;;2.41;92.34;101555.75;5023263;28;20157;-60
2023/02/16 07:28:13;;;;;;;32.72;19.02;;;;;;;2.38;92.36;101554.00;5023522;28;20049;-60
2023/02/16 07:30:41;;;;;;;29.00;17.88;;;;;;;2.41;92.27;101553.13;5025140;28;20053;-62
2023/02/16 07:33:08;;;;;;;26.25;18.08;;;;;;;2.40;91.99;101556.63;5021585;28;20058;-61
2023/02/16 07:35:36;;;;;;;29.35;18.27;;;;;;;2.38;92.40;101555.75;5023162;28;20672;-61
2023/02/16 07:38:04;;;;;;;33.58;20.08;;;;;;;2.32;93.25;101545.44;5023160;28;20081;-60
2023/02/16 07:40:32;;;;;;;25.75;18.02;;;;;;;2.33;92.84;101544.56;5025921;28;20156;-58
2023/02/16 07:43:00;;;;;;;32.40;18.65;;;;;;;2.40;92.34;101538.44;5024726;28;20628;-60
2023/02/16 07:45:27;;;;;;;26.88;18.77;;;;;;;2.49;92.37;101546.97;5028845;28;20049;-61
2023/02/16 07:47:55;;;;;;;26.25;17.90;;;;;;;2.54;92.21;101542.59;5029525;28;20076;-60
2023/02/16 07:50:22;;;;;;;26.33;18.40;;;;;;;2.61;91.51;101550.31;5025107;28;20053;-60
2023/02/16 07:52:49;;;;;;;30.27;18.63;;;;;;;2.62;91.96;101552.06;5022654;28;20072;-61
2023/02/16 07:55:16;;;;;;;31.63;19.38;;;;;;;2.60;91.77;101548.59;5020650;28;20060;-61
2023/02/16 07:57:43;;;;;;;30.67;21.20;;;;;;;2.54;92.35;101545.19;5027162;28;20095;-60
2023/02/16 08:00:11;;;;;;;29.05;19.58;;;;;;;2.59;92.29;101552.94;5020430;28;20141;-61
2023/02/16 08:02:39;;;;;;;34.10;19.88;;;;;;;2.63;92.40;101558.97;5026824;28;20054;-60
2023/02/16 08:05:06;;;;;;;29.90;20.02;;;;;;;2.71;92.16;101563.22;5028466;28;20148;-61
2023/02/16 08:07:34;;;;;;;31.00;20.80;;;;;;;2.73;91.90;101565.78;5021687;28;20063;-61
2023/02/16 08:10:01;;;;;;;34.08;20.88;;;;;;;2.76;91.57;101565.75;5026313;28;20058;-60
2023/02/16 08:12:29;;;;;;;32.35;20.05;;;;;;;2.85;91.82;101564.78;5025778;28;20053;-59
2023/02/16 08:14:56;;;;;;;32.58;21.25;;;;;;;2.88;91.89;101562.13;5025747;28;20049;-60
2023/02/16 08:17:24;;;;;;;30.95;21.00;;;;;;;2.92;91.74;101567.28;5023668;28;20057;-60
2023/02/16 08:19:51;;;;;;;35.85;22.33;;;;;;;2.91;91.50;101562.09;5025176;28;20058;-60
2023/02/16 08:22:18;;;;;;;30.63;20.75;;;;;;;2.93;91.53;101562.97;5021783;28;20514;-60
2023/02/16 08:24:45;;;;;;;31.77;20.80;;;;;;;2.99;92.16;101571.53;5022097;28;20482;-60
2023/02/16 08:27:12;;;;;;;32.22;20.85;;;;;;;3.01;91.62;101561.09;5028123;28;20046;-60
2023/02/16 08:29:40;;;;;;;34.10;22.63;;;;;;;3.02;92.22;101560.25;5021652;28;20172;-60
2023/02/16 08:32:11;;;;;;;31.80;21.45;;;;;;;3.07;91.85;101565.38;5027206;28;20045;-60
2023/02/16 08:34:39;;;;;;;34.97;22.13;;;;;;;3.16;91.44;101573.06;5022163;28;20053;-60
2023/02/16 08:37:11;;;;;;;34.63;23.45;;;;;;;3.21;92.08;101560.84;5025999;28;20057;-60
2023/02/16 08:39:39;;;;;;;35.05;23.20;;;;;;;3.26;91.71;101572.06;5018870;28;20117;-59
2023/02/16 08:42:07;;;;;;;33.25;21.70;;;;;;;3.34;91.36;101570.22;5022207;28;20055;-63
2023/02/16 08:44:34;;;;;;;38.67;24.20;;;;;;;3.37;90.96;101559.75;5025797;28;20395;-61
2023/02/16 08:47:02;;;;;;;32.03;21.77;;;;;;;3.50;90.48;101565.63;5025316;28;20168;-61
2023/02/16 08:49:29;;;;;;;33.67;21.80;;;;;;;3.60;90.36;101558.53;5028340;28;20077;-61
2023/02/16 08:51:57;;;;;;;37.05;23.48;;;;;;;3.69;89.75;101561.91;5023513;28;20318;-61
2023/02/16 08:54:29;;;;;;;38.17;22.20;;;;;;;3.80;89.51;101553.91;5023903;28;20071;-61
2023/02/16 08:56:57;;;;;;;38.20;24.55;;;;;;;3.84;89.55;101542.56;5030520;28;20581;-61
2023/02/16 08:59:26;;;;;;;34.00;23.50;;;;;;;3.95;89.39;101547.56;5026676;28;20072;-62
2023/02/16 09:01:58;;;;;;;36.33;22.60;;;;;;;4.03;88.74;101551.75;5038880;28;20639;-60
2023/02/16 09:04:27;;;;;;;37.90;24.13;;;;;;;4.10;89.25;101547.31;5028967;28;20081;-62
2023/02/16 09:06:56;;;;;;;36.35;24.60;;;;;;;4.18;88.79;101545.41;5029257;28;20153;-62
2023/02/16 09:09:25;;;;;;;41.10;25.08;;;;;;;4.29;88.13;101540.03;5025210;28;20140;-61
2023/02/16 09:11:52;;;;;;;35.97;23.63;;;;;;;4.39;87.59;101549.41;5028267;28;20128;-61
2023/02/16 09:14:20;;;;;;;38.88;24.02;;;;;;;4.49;87.24;101543.13;5029659;28;20136;-60
2023/02/16 09:16:47;;;;;;;38.25;24.17;;;;;;;4.62;86.08;101530.69;5024891;28;20136;-63
2023/02/16 09:19:19;;;;;;;45.60;25.20;;;;;;;4.70;85.93;101539.25;5027626;28;20144;-60
2023/02/16 09:21:47;;;;;;;45.75;24.13;;;;;;;4.82;85.58;101540.75;5025605;28;20137;-62
2023/02/16 09:24:14;;;;;;;43.75;26.50;;;;;;;4.93;85.65;101541.38;5025853;28;20080;-62
2023/02/16 09:26:43;;;;;;;40.42;24.55;;;;;;;5.04;84.48;101551.56;5024611;28;20077;-60
2023/02/16 09:29:12;;;;;;;38.85;24.63;;;;;;;5.17;83.87;101539.13;5027620;28;20477;-60
2023/02/16 09:31:41;;;;;;;41.33;25.67;;;;;;;5.27;82.92;101543.28;5027291;28;20049;-57
2023/02/16 09:34:20;;;;;;;41.17;24.67;;;;;;;5.41;82.45;101537.75;5027191;28;20412;-61
2023/02/16 09:36:48;;;;;;;45.25;26.15;;;;;;;5.57;81.58;101539.94;5019691;28;20469;-60
2023/02/16 09:39:16;;;;;;;41.45;24.90;;;;;;;5.66;80.54;101538.00;5023144;28;20053;-60
2023/02/16 09:42:04;;;;;;;40.47;25.58;;;;;;;5.75;80.04;101543.84;5033375;28;20155;-59
2023/02/16 09:44:53;;;;;;;45.03;25.60;;;;;;;5.85;79.65;101539.25;5024871;28;20518;-60
2023/02/16 09:47:29;;;;;;;39.63;25.17;;;;;;;6.03;78.85;101543.22;5036264;28;20050;-61
2023/02/16 09:50:05;;;;;;;39.63;24.75;;;;;;;6.13;79.11;101543.84;5024911;28;20152;-61
2023/02/16 09:52:36;;;;;;;43.47;26.63;;;;;;;6.28;77.99;101538.22;5002038;28;20055;-59
2023/02/16 09:55:13;;;;;;;39.45;25.75;;;;;;;6.38;77.68;101536.22;5023857;28;20475;-59
2023/02/16 09:57:57;;;;;;;34.60;24.23;;;;;;;6.51;77.49;101522.75;5021987;28;20068;-61
2023/02/16 10:00:34;;;;;;;41.25;24.08;;;;;;;6.58;76.73;101531.31;5026082;28;20053;-61
2023/02/16 10:03:31;;;;;;;38.10;25.48;;;;;;;6.65;75.58;101526.75;5025348;28;20405;-60
2023/02/16 10:06:26;;;;;;;35.33;23.67;;;;;;;6.79;76.95;101535.91;5023934;28;20457;-60
2023/02/16 10:09:10;;;;;;;38.10;23.33;;;;;;;6.93;75.58;101540.75;5028709;28;20103;-60
2023/02/16 10:11:40;;;;;;;53.85;25.77;;;;;;;7.07;74.78;101535.97;5023807;28;20157;-60
2023/02/16 10:14:24;;;;;;;40.45;25.23;;;;;;;7.17;73.12;101543.56;5025238;28;20053;-61
2023/02/16 10:17:11;;;;;;;39.55;25.48;;;;;;;7.27;72.88;101526.66;5017408;28;20049;-61
2023/02/16 10:19:42;;;;;;;44.00;24.75;;;;;;;7.38;72.54;101528.94;5018318;28;20486;-61
2023/02/16 10:22:14;;;;;;;38.83;24.90;;;;;;;7.49;73.55;101535.56;5021935;28;20052;-61
2023/02/16 10:25:00;;;;;;;40.45;25.42;;;;;;;7.60;71.06;101541.31;5020711;28;20049;-60
2023/02/16 10:27:36;;;;;;;37.13;25.52;;;;;;;7.66;70.69;101542.91;5018936;28;20045;-59
2023/02/16 10:30:18;;;;;;;39.97;23.92;;;;;;;7.77;70.62;101542.53;5020342;28;20428;-62
2023/02/16 10:32:57;;;;;;;38.90;24.15;;;;;;;7.78;69.45;101546.88;5026653;28;20064;-62
2023/02/16 10:35:31;;;;;;;39.28;24.98;;;;;;;7.82;69.68;101540.63;5019816;28;20517;-60
2023/02/16 10:38:11;;;;;;;38.33;24.92;;;;;;;7.86;69.28;101542.22;5022080;28;20172;-61
2023/02/16 10:40:45;;;;;;;39.20;24.70;;;;;;;7.93;69.83;101540.28;5021932;28;20207;-61
2023/02/16 10:43:32;;;;;;;37.63;25.02;;;;;;;8.04;69.09;101525.03;5038344;28;20577;-62
2023/02/16 10:46:00;;;;;;;38.63;24.83;;;;;;;8.06;68.34;101524.09;5024123;28;20068;-61
2023/02/16 10:48:28;;;;;;;41.35;26.60;;;;;;;8.05;67.37;101522.34;5022858;28;20445;-60
2023/02/16 10:51:02;;;;;;;41.10;23.90;;;;;;;8.22;67.91;101503.41;5024656;28;20578;-60
2023/02/16 10:53:39;;;;;;;41.63;25.23;;;;;;;8.28;66.15;101508.44;5036192;28;21138;-59
2023/02/16 10:56:24;;;;;;;46.65;25.17;;;;;;;8.34;66.39;101502.13;5024571;28;20052;-61
2023/02/16 10:58:52;;;;;;;36.85;24.92;;;;;;;8.42;65.34;101505.38;5021315;28;20133;-62
2023/02/16 11:01:21;;;;;;;40.97;26.42;;;;;;;8.50;65.30;101511.19;5022767;28;20053;-61
2023/02/16 11:03:49;;;;;;;44.65;26.52;;;;;;;8.55;65.11;101504.00;5026435;28;20045;-61
2023/02/16 11:06:19;;;;;;;41.15;24.35;;;;;;;8.75;65.77;101511.16;5024584;28;20526;-59
2023/02/16 11:08:53;;;;;;;39.28;24.88;;;;;;;8.85;64.97;101496.75;5022797;28;20687;-61
2023/02/16 11:11:21;;;;;;;36.88;23.95;;;;;;;8.94;64.91;101497.34;5027768;28;20135;-61
2023/02/16 11:13:49;;;;;;;37.25;24.40;;;;;;;9.06;65.15;101499.50;5016749;28;20535;-62
2023/02/16 11:16:21;;;;;;;39.70;25.27;;;;;;;9.18;64.15;101495.53;5014308;28;20046;-62
2023/02/16 11:18:58;;;;;;;40.45;25.45;;;;;;;9.19;62.59;101502.50;5026678;28;20076;-61
2023/02/16 11:22:01;;;;;;;40.63;25.58;;;;;;;9.24;62.80;101497.94;5017228;28;20057;-62
2023/02/16 11:24:30;;;;;;;40.28;25.30;;;;;;;9.17;62.77;101494.66;5024200;28;20094;-61
2023/02/16 11:27:03;;;;;;;40.72;24.90;;;;;;;9.23;63.00;101496.19;5019443;28;20049;-59
2023/02/16 11:29:30;;;;;;;36.30;22.67;;;;;;;9.39;63.42;101497.31;5028815;28;20052;-59
2023/02/16 11:31:58;;;;;;;38.97;24.40;;;;;;;9.51;62.46;101482.81;5026922;28;20164;-61
2023/02/16 11:34:48;;;;;;;40.35;24.80;;;;;;;9.60;61.46;101485.06;5011721;28;20079;-61
2023/02/16 11:37:30;;;;;;;38.50;24.65;;;;;;;9.76;61.84;101486.13;5025028;28;20414;-63
2023/02/16 11:40:00;;;;;;;39.45;25.17;;;;;;;9.93;61.32;101477.53;5003386;28;20088;-61
2023/02/16 11:42:29;;;;;;;42.30;24.98;;;;;;;10.12;60.98;101475.81;5022899;28;20080;-61
2023/02/16 11:44:57;;;;;;;37.13;24.17;;;;;;;10.26;60.40;101479.66;5024095;28;20486;-62
2023/02/16 11:47:27;;;;;;;41.03;25.45;;;;;;;10.36;60.21;101478.34;5027496;28;20053;-59
2023/02/16 11:50:19;;;;;;;39.95;24.65;;;;;;;10.57;59.59;101471.25;5025951;28;20062;-62
2023/02/16 11:52:52;;;;;;;38.03;22.88;;;;;;;10.68;59.39;101473.41;5025171;28;20533;-60
2023/02/16 11:55:26;;;;;;;34.38;22.88;;;;;;;10.84;59.00;101471.75;5025853;28;20132;-62
2023/02/16 11:57:55;;;;;;;32.33;22.77;;;;;;;11.06;58.72;101469.84;5023061;28;20175;-61
2023/02/16 12:00:25;;;;;;;39.90;24.58;;;;;;;11.19;56.50;101461.34;5022145;28;20153;-60
2023/02/16 12:03:09;;;;;;;40.47;23.00;;;;;;;11.37;57.83;101468.38;5022115;28;20136;-60
2023/02/16 12:06:11;;;;;;;35.42;21.92;;;;;;;11.65;55.85;101455.50;5032473;28;20112;-60
2023/02/16 12:09:01;;;;;;;37.45;22.55;;;;;;;12.08;54.60;101461.28;5038903;28;20129;-61
2023/02/16 12:11:38;;;;;;;35.42;22.05;;;;;;;12.53;54.14;101457.16;5024572;28;20510;-62
2023/02/16 12:14:50;;;;;;;33.03;22.13;;;;;;;13.18;53.99;101457.94;5002135;28;20586;-62
2023/02/16 12:17:48;;;;;;;33.28;21.80;;;;;;;13.64;49.57;101457.09;5000676;28;20053;-62